Ana Sayfa
METAR-TAF:

METAR-TAF

Havaalanları :

Avenger Field

Sweetwater, Teksas, Amerika Birleşik Devletleri

Enlem: 32-28-02N, Boylam: 100-27-59W, yükseklik: 725 m

Güncel hava durumu gözlemi

Rapor saat 06:15 UTC de 33 dakika önce yapıldı.
Rüzgar doğu/güneydoğudan 7 kt
Sıcaklık 25°C
Nem 61%
Basınç 1017 hPa
Görüş mesafesi: 16.1 km

METAR: KSWW 150615Z AUTO 12007KT 10SM 25/17 A3002 RMK AO2 T02500170

Saat: 01:48 (06:48 UTC)


TAF: eksik

4.000'den fazla havaalanı için hava durumu gözlemleri ve tahminleri (METAR ve TAF raporları).

Kullanılabilir istasyonlar harita üzerinde sarı ve kırmızı noktalarla gösterilir.

İstasyonun adını görmek için fareyi noktanın üzerinde gezdirin.

Sonrasında hava gözlem ve tahminlerini görmek için tıklayın.

Haritayı değiştirmek için: yaklaştırmak için siyah artı işaretli yeşil düğmeye ve uzaklaştırmak için de eksi işaretli düğmeye hızla tıklayın; bitişik haritalar için yeşil okları kullanın.


METAR-TAF: